createdAt,value
2023-04-20T00:00:10.028Z,99855.22
2023-04-20T00:00:54.545Z,99860.34
2023-04-20T00:01:36.212Z,99852.38
2023-04-20T00:02:18.104Z,99835.75
2023-04-20T00:03:00.847Z,99854.59
2023-04-20T00:03:42.482Z,99856.00
2023-04-20T00:04:24.130Z,99817.56
2023-04-20T00:05:07.792Z,99851.75
2023-04-20T00:05:49.531Z,99853.84
2023-04-20T00:06:32.911Z,99853.28
2023-04-20T00:07:16.690Z,99843.94
2023-04-20T00:07:59.050Z,99765.91
2023-04-20T00:08:41.014Z,99848.06
2023-04-20T00:09:23.188Z,99849.59
2023-04-20T00:10:05.547Z,99850.41
2023-04-20T00:10:47.121Z,99830.16
2023-04-20T00:11:28.709Z,99847.66
2023-04-20T00:12:10.518Z,99850.97
2023-04-20T00:12:52.177Z,99843.94
2023-04-20T00:13:33.782Z,99843.63
2023-04-20T00:14:16.200Z,99841.69
2023-04-20T00:14:57.822Z,99839.88
2023-04-20T00:15:39.446Z,99841.66
2023-04-20T00:16:21.062Z,99839.44
2023-04-20T00:17:02.774Z,99839.03
2023-04-20T00:17:45.141Z,99839.03
2023-04-20T00:18:26.777Z,99834.28
2023-04-20T00:19:08.741Z,99829.19
2023-04-20T00:19:50.417Z,99837.47
2023-04-20T00:20:32.035Z,99835.66
2023-04-20T00:21:13.714Z,99835.66
2023-04-20T00:21:55.368Z,99814.56
2023-04-20T00:22:37.094Z,99831.25
2023-04-20T00:23:18.681Z,99799.09
2023-04-20T00:24:00.282Z,99810.97
2023-04-20T00:24:42.053Z,99827.25
2023-04-20T00:25:23.706Z,99827.22
2023-04-20T00:26:05.755Z,99828.03
2023-04-20T00:26:47.342Z,99822.50
2023-04-20T00:27:28.931Z,99828.56
2023-04-20T00:28:10.614Z,99831.19
2023-04-20T00:28:52.367Z,99820.56
2023-04-20T00:29:34.046Z,99817.00
2023-04-20T00:30:15.765Z,99824.56
2023-04-20T00:30:57.530Z,99813.50
2023-04-20T00:31:39.173Z,99821.94
2023-04-20T00:32:21.183Z,99814.19
2023-04-20T00:33:03.528Z,99796.53
2023-04-20T00:33:45.249Z,99802.59
2023-04-20T00:34:26.859Z,99814.34
2023-04-20T00:35:08.986Z,99808.41
2023-04-20T00:35:50.588Z,99748.50
2023-04-20T00:36:32.232Z,99810.66
2023-04-20T00:37:13.800Z,99795.47
2023-04-20T00:37:55.460Z,99797.69
2023-04-20T00:38:39.411Z,99792.47
2023-04-20T00:39:21.294Z,99801.31
2023-04-20T00:40:04.000Z,99786.34
2023-04-20T00:40:48.922Z,99806.75
2023-04-20T00:41:30.550Z,99801.41
2023-04-20T00:42:14.337Z,99792.03
2023-04-20T00:42:55.925Z,99799.22
2023-04-20T00:43:38.467Z,99791.78
2023-04-20T00:44:21.238Z,99794.00
2023-04-20T00:45:03.702Z,99755.16
2023-04-20T00:45:46.641Z,99785.34
2023-04-20T00:46:28.232Z,99791.81
2023-04-20T00:47:09.888Z,99785.88
2023-04-20T00:47:51.607Z,99798.56
2023-04-20T00:48:33.240Z,99763.13
2023-04-20T00:49:15.129Z,99791.78
2023-04-20T00:49:56.958Z,99787.50
2023-04-20T00:50:40.737Z,99790.53
2023-04-20T00:51:23.174Z,99781.00
2023-04-20T00:52:05.727Z,99791.09
2023-04-20T00:52:47.654Z,99775.78
2023-04-20T00:53:29.291Z,99790.81
2023-04-20T00:54:11.426Z,99757.03
2023-04-20T00:54:53.339Z,99767.75
2023-04-20T00:55:37.721Z,99783.88
2023-04-20T00:56:19.701Z,99779.19
2023-04-20T00:57:02.404Z,99786.50
2023-04-20T00:57:44.354Z,99726.69
2023-04-20T00:58:26.157Z,99778.91
2023-04-20T00:59:08.076Z,99778.34
2023-04-20T00:59:51.654Z,99712.25
2023-04-20T01:00:34.110Z,99749.56
2023-04-20T01:01:17.660Z,99772.72
2023-04-20T01:02:01.253Z,99777.97
2023-04-20T01:02:43.157Z,99778.25
2023-04-20T01:03:25.154Z,99781.00
2023-04-20T01:04:07.884Z,99774.94
2023-04-20T01:04:49.842Z,99772.31
2023-04-20T01:05:32.119Z,99772.16
2023-04-20T01:06:15.085Z,99762.78
2023-04-20T01:06:57.174Z,99777.28
2023-04-20T01:07:38.792Z,99759.47
2023-04-20T01:08:20.413Z,99766.66
2023-04-20T01:09:02.027Z,99771.75
2023-04-20T01:09:44.616Z,99769.00
2023-04-20T01:10:26.724Z,99772.44
2023-04-20T01:11:08.276Z,99767.19
2023-04-20T01:11:50.657Z,99751.19
2023-04-20T01:12:32.232Z,99765.25
2023-04-20T01:13:13.840Z,99626.16
2023-04-20T01:13:55.452Z,99743.91
2023-04-20T01:14:37.230Z,99766.38
2023-04-20T01:15:18.828Z,99769.13
2023-04-20T01:16:01.742Z,99764.16
2023-04-20T01:16:44.811Z,99754.22
2023-04-20T01:17:27.819Z,99487.03
2023-04-20T01:18:09.572Z,99760.16
2023-04-20T01:18:53.330Z,99745.56
2023-04-20T01:19:35.040Z,99756.84
2023-04-20T01:20:20.438Z,99713.06
2023-04-20T01:21:02.065Z,99747.91
2023-04-20T01:21:43.769Z,99753.72
2023-04-20T01:22:25.967Z,99732.34
2023-04-20T01:23:07.585Z,99754.00
2023-04-20T01:23:49.584Z,99753.31
2023-04-20T01:24:31.227Z,99749.16
2023-04-20T01:25:14.833Z,99753.06
2023-04-20T01:25:56.456Z,99735.84
2023-04-20T01:26:38.170Z,99748.50
2023-04-20T01:27:22.289Z,99744.34
2023-04-20T01:28:04.810Z,99747.16
2023-04-20T01:28:46.682Z,99755.00
2023-04-20T01:29:30.452Z,99737.78
2023-04-20T01:30:12.546Z,99739.44
2023-04-20T01:30:54.126Z,99750.03
2023-04-20T01:31:35.829Z,99740.38
2023-04-20T01:32:17.421Z,99745.19
2023-04-20T01:32:59.014Z,99733.06
2023-04-20T01:33:40.913Z,99730.72
2023-04-20T01:34:22.548Z,99737.19
2023-04-20T01:35:04.604Z,99741.59
2023-04-20T01:35:46.171Z,99738.56
2023-04-20T01:36:27.757Z,99738.72
2023-04-20T01:37:09.683Z,99735.94
2023-04-20T01:37:52.488Z,99737.97
2023-04-20T01:38:34.871Z,99741.03
2023-04-20T01:39:17.756Z,99730.53
2023-04-20T01:39:59.610Z,99727.22
2023-04-20T01:40:41.237Z,99677.09
2023-04-20T01:41:22.914Z,99726.28
2023-04-20T01:42:05.718Z,99736.09
2023-04-20T01:42:47.349Z,99732.53
2023-04-20T01:43:30.044Z,99728.13
2023-04-20T01:44:11.720Z,99726.63
2023-04-20T01:44:53.434Z,99733.66
2023-04-20T01:45:36.092Z,99719.03
2023-04-20T01:46:17.752Z,99727.59
2023-04-20T01:46:59.575Z,99727.84
2023-04-20T01:47:41.305Z,99717.09
2023-04-20T01:48:22.899Z,99723.44
2023-04-20T01:49:04.609Z,99707.59
2023-04-20T01:49:46.232Z,99719.31
2023-04-20T01:50:27.963Z,99706.91
2023-04-20T01:51:09.830Z,99716.00
2023-04-20T01:51:51.456Z,99627.59
2023-04-20T01:52:33.122Z,99709.81
2023-04-20T01:53:14.713Z,99711.75
2023-04-20T01:53:56.353Z,99710.53
2023-04-20T01:54:38.239Z,99708.31
2023-04-20T01:55:20.289Z,99698.66
2023-04-20T01:56:02.064Z,99704.59
2023-04-20T01:56:43.681Z,99674.00
2023-04-20T01:57:25.414Z,99695.47
2023-04-20T01:58:06.983Z,99702.09
2023-04-20T01:58:49.164Z,99701.56
2023-04-20T01:59:30.983Z,99705.81
2023-04-20T02:00:13.419Z,99660.34
2023-04-20T02:00:58.841Z,99691.22
2023-04-20T02:01:41.672Z,99683.53
2023-04-20T02:02:23.308Z,99700.88
2023-04-20T02:03:05.186Z,99708.59
2023-04-20T02:03:49.482Z,99693.56
2023-04-20T02:04:31.378Z,99709.69
2023-04-20T02:05:12.947Z,99698.69
2023-04-20T02:05:54.713Z,99717.00
2023-04-20T02:06:36.517Z,99713.28
2023-04-20T02:07:18.163Z,99707.91
2023-04-20T02:07:59.864Z,99710.09
2023-04-20T02:08:41.601Z,99707.34
2023-04-20T02:09:23.156Z,99691.09
2023-04-20T02:10:05.111Z,99707.91
2023-04-20T02:10:46.768Z,99693.44
2023-04-20T02:11:28.378Z,99636.41
2023-04-20T02:12:10.019Z,99706.94
2023-04-20T02:12:54.801Z,99711.22
2023-04-20T02:13:36.589Z,99711.09
2023-04-20T02:14:18.414Z,99700.31
2023-04-20T02:14:59.995Z,99704.72
2023-04-20T02:15:41.644Z,99717.69
2023-04-20T02:16:25.805Z,99706.78
2023-04-20T02:17:07.694Z,99708.56
2023-04-20T02:17:52.279Z,99705.56
2023-04-20T02:18:34.422Z,99710.09
2023-04-20T02:19:16.680Z,99704.16
2023-04-20T02:19:58.570Z,99694.53
2023-04-20T02:20:40.158Z,99693.13
2023-04-20T02:21:22.573Z,99705.56
2023-04-20T02:22:04.243Z,99707.03
2023-04-20T02:22:45.859Z,99687.50
2023-04-20T02:23:27.545Z,99685.16
2023-04-20T02:24:10.346Z,99694.97
2023-04-20T02:24:51.960Z,99702.41
2023-04-20T02:25:33.629Z,99701.72
2023-04-20T02:26:16.754Z,99693.84
2023-04-20T02:26:58.755Z,99695.78
2023-04-20T02:27:40.552Z,99670.00
2023-04-20T02:28:22.210Z,99696.75
2023-04-20T02:29:03.815Z,99694.25
2023-04-20T02:29:45.755Z,99699.34
2023-04-20T02:30:29.104Z,99698.41
2023-04-20T02:31:11.150Z,99695.09
2023-04-20T02:31:52.740Z,99696.22
2023-04-20T02:32:35.018Z,99704.06
2023-04-20T02:33:17.305Z,99664.66
2023-04-20T02:33:59.185Z,99683.53
2023-04-20T02:34:42.486Z,99687.38
2023-04-20T02:35:24.323Z,99704.75
2023-04-20T02:36:06.174Z,99693.84
2023-04-20T02:36:48.839Z,99694.53
2023-04-20T02:37:30.973Z,99676.50
2023-04-20T02:38:12.572Z,99694.41
2023-04-20T02:38:54.148Z,99694.25
2023-04-20T02:39:35.792Z,99693.44
2023-04-20T02:40:17.484Z,99687.63
2023-04-20T02:40:59.082Z,99691.66
2023-04-20T02:41:41.198Z,99676.91
2023-04-20T02:42:22.871Z,99696.19
2023-04-20T02:43:05.105Z,99686.53
2023-04-20T02:43:48.418Z,99685.44
2023-04-20T02:44:30.130Z,99691.09
2023-04-20T02:45:11.844Z,99680.78
2023-04-20T02:45:54.757Z,99691.09
2023-04-20T02:46:38.459Z,99693.28
2023-04-20T02:47:20.370Z,99681.44
2023-04-20T02:48:01.982Z,99689.97
2023-04-20T02:48:45.929Z,99682.13
2023-04-20T02:49:27.858Z,99683.53
2023-04-20T02:50:10.102Z,99667.81
2023-04-20T02:51:08.303Z,99692.06
2023-04-20T02:51:56.183Z,99690.28
2023-04-20T02:52:38.053Z,99685.31
2023-04-20T02:53:20.219Z,99682.56
2023-04-20T02:54:08.160Z,99615.03
2023-04-20T02:54:50.500Z,99683.53
2023-04-20T02:55:32.759Z,99620.00
2023-04-20T02:56:18.929Z,99680.78
2023-04-20T02:57:05.919Z,99683.41
2023-04-20T02:57:47.766Z,99556.50
2023-04-20T02:58:30.865Z,99681.03
2023-04-20T02:59:33.293Z,99681.69
2023-04-20T03:00:20.276Z,99680.75
2023-04-20T03:01:14.313Z,99675.75
2023-04-20T03:01:56.252Z,99620.63
2023-04-20T03:02:39.946Z,99686.59
2023-04-20T03:03:22.327Z,99617.13
2023-04-20T03:04:04.709Z,99679.56
2023-04-20T03:04:48.868Z,99667.56
2023-04-20T03:05:36.598Z,99680.38
2023-04-20T03:06:18.509Z,99637.88
2023-04-20T03:07:09.463Z,99680.38
2023-04-20T03:07:53.140Z,99672.09
2023-04-20T03:08:34.801Z,99664.50
2023-04-20T03:09:29.123Z,99674.44
2023-04-20T03:10:33.413Z,99682.00
2023-04-20T03:11:26.524Z,99685.59
2023-04-20T03:12:08.162Z,99683.38
2023-04-20T03:13:09.828Z,99674.53
2023-04-20T03:14:04.991Z,99682.50
2023-04-20T03:14:46.590Z,99669.66
2023-04-20T03:15:28.721Z,99681.81
2023-04-20T03:16:20.532Z,99685.38
2023-04-20T03:17:05.503Z,99673.94
2023-04-20T03:17:47.242Z,99679.44
2023-04-20T03:18:29.726Z,99682.63
2023-04-20T03:19:11.448Z,99685.81
2023-04-20T03:19:53.107Z,99693.25
2023-04-20T03:20:35.604Z,99677.56
2023-04-20T03:21:17.223Z,99678.97
2023-04-20T03:21:59.598Z,99681.44
2023-04-20T03:22:41.396Z,99676.50
2023-04-20T03:23:23.815Z,99677.19
2023-04-20T03:24:07.265Z,99673.75
2023-04-20T03:24:50.253Z,99680.25
2023-04-20T03:25:55.947Z,99678.75
2023-04-20T03:26:49.022Z,99680.84
2023-04-20T03:27:34.126Z,99684.81
2023-04-20T03:28:21.947Z,99681.69
2023-04-20T03:29:03.632Z,99684.00
2023-04-20T03:29:45.386Z,99679.34
2023-04-20T03:30:27.168Z,99658.16
2023-04-20T03:31:15.295Z,99673.16
2023-04-20T03:31:57.155Z,99678.00
2023-04-20T03:32:38.912Z,99692.47
2023-04-20T03:33:21.071Z,99671.94
2023-04-20T03:34:02.721Z,99653.34
2023-04-20T03:34:47.440Z,99668.78
2023-04-20T03:35:29.573Z,99664.78
2023-04-20T03:36:13.970Z,99672.22
2023-04-20T03:36:55.573Z,99649.91
2023-04-20T03:37:37.774Z,99653.09
2023-04-20T03:38:21.219Z,99663.69
2023-04-20T03:39:04.443Z,99672.50
2023-04-20T03:39:46.070Z,99670.84
2023-04-20T03:40:27.669Z,99636.13
2023-04-20T03:41:09.317Z,99666.56
2023-04-20T03:41:51.130Z,99667.53
2023-04-20T03:42:32.891Z,99669.19
2023-04-20T03:43:14.571Z,99668.34
2023-04-20T03:43:57.721Z,99666.16
2023-04-20T03:44:39.381Z,99655.00
2023-04-20T03:45:21.088Z,99665.59
2023-04-20T03:46:04.344Z,99660.50
2023-04-20T03:46:46.079Z,99638.63
2023-04-20T03:47:27.711Z,99665.88
2023-04-20T03:48:09.427Z,99659.69
2023-04-20T03:48:51.029Z,99605.22
2023-04-20T03:49:32.642Z,99652.63
2023-04-20T03:50:14.297Z,99622.41
2023-04-20T03:50:55.980Z,99640.16
2023-04-20T03:51:37.629Z,99646.38
2023-04-20T03:52:20.840Z,99654.88
2023-04-20T03:53:02.510Z,99651.97
2023-04-20T03:53:49.782Z,99650.84
2023-04-20T03:54:31.528Z,99649.59
2023-04-20T03:55:13.397Z,99653.03
2023-04-20T03:56:02.026Z,99650.53
2023-04-20T03:56:46.007Z,99633.06
2023-04-20T03:57:28.632Z,99637.44
2023-04-20T03:58:10.301Z,99654.94
2023-04-20T03:59:00.806Z,99658.63
2023-04-20T03:59:42.554Z,99656.28
2023-04-20T04:00:26.682Z,99656.41
2023-04-20T04:01:17.176Z,99655.75
2023-04-20T04:02:02.521Z,99657.66
2023-04-20T04:02:44.365Z,99662.03
2023-04-20T04:03:26.149Z,99668.22
2023-04-20T04:04:08.076Z,99659.56
2023-04-20T04:04:51.392Z,99663.81
2023-04-20T04:05:35.818Z,99664.78
2023-04-20T04:06:18.521Z,99660.50
2023-04-20T04:07:00.465Z,99662.41
2023-04-20T04:07:42.232Z,99666.13
2023-04-20T04:08:24.460Z,99661.84
2023-04-20T04:09:06.235Z,99638.56
2023-04-20T04:09:48.075Z,99660.34
2023-04-20T04:10:30.917Z,99638.84
2023-04-20T04:11:12.473Z,99663.09
2023-04-20T04:11:54.118Z,99653.84
2023-04-20T04:12:36.767Z,99663.63
2023-04-20T04:13:18.680Z,99656.38
2023-04-20T04:14:00.533Z,99654.34
2023-04-20T04:14:43.476Z,99659.03
2023-04-20T04:15:27.180Z,99657.69
2023-04-20T04:16:16.509Z,99656.31
2023-04-20T04:16:58.121Z,99654.00
2023-04-20T04:17:39.972Z,99658.03
2023-04-20T04:18:22.279Z,99652.50
2023-04-20T04:19:04.793Z,99661.19
2023-04-20T04:19:46.398Z,99664.25
2023-04-20T04:20:28.575Z,99645.38
2023-04-20T04:21:10.908Z,99647.84
2023-04-20T04:21:55.354Z,99654.63
2023-04-20T04:22:37.117Z,99657.69
2023-04-20T04:23:51.251Z,99583.13
2023-04-20T04:24:41.755Z,99645.44
2023-04-20T04:25:24.712Z,99632.78
2023-04-20T04:26:06.343Z,99655.94
2023-04-20T04:26:51.251Z,99569.44
2023-04-20T04:27:37.534Z,99639.97
2023-04-20T04:28:19.582Z,99645.34
2023-04-20T04:29:10.558Z,99651.53
2023-04-20T04:29:52.407Z,99645.34
2023-04-20T04:30:35.742Z,99647.13
2023-04-20T04:31:19.507Z,99647.00
2023-04-20T04:32:05.297Z,99646.28
2023-04-20T04:32:48.925Z,99647.38
2023-04-20T04:33:33.538Z,99642.16
2023-04-20T04:34:15.242Z,99590.53
2023-04-20T04:35:04.570Z,99642.31
2023-04-20T04:35:46.318Z,99647.28
2023-04-20T04:36:28.648Z,99647.97
2023-04-20T04:37:12.974Z,99633.50
2023-04-20T04:37:59.248Z,99646.72
2023-04-20T04:38:44.495Z,99630.75
2023-04-20T04:39:27.307Z,99637.34
2023-04-20T04:40:18.200Z,99651.25
2023-04-20T04:41:00.552Z,99644.41
2023-04-20T04:41:43.384Z,99649.63
2023-04-20T04:42:48.628Z,99649.63
2023-04-20T04:43:30.617Z,99647.03
2023-04-20T04:44:28.138Z,99645.22
2023-04-20T04:45:11.053Z,99519.63
2023-04-20T04:45:55.615Z,99643.16
2023-04-20T04:46:37.685Z,99640.81
2023-04-20T04:47:21.903Z,99653.19
2023-04-20T04:48:04.387Z,99641.09
2023-04-20T04:48:46.797Z,99643.28
2023-04-20T04:49:30.260Z,99625.66
2023-04-20T04:50:12.854Z,99634.03
2023-04-20T04:50:54.464Z,99638.59
2023-04-20T04:51:36.035Z,99635.81
2023-04-20T04:52:17.585Z,99641.06
2023-04-20T04:52:59.153Z,99647.25
2023-04-20T04:53:45.025Z,99637.63
2023-04-20T04:54:26.726Z,99641.88
2023-04-20T04:55:09.808Z,99626.75
2023-04-20T04:55:51.564Z,99635.31
2023-04-20T04:56:33.123Z,99637.63
2023-04-20T04:57:14.895Z,99639.97
2023-04-20T04:57:57.262Z,99635.44
2023-04-20T04:58:39.118Z,99634.34
2023-04-20T04:59:20.853Z,99632.25
2023-04-20T05:00:02.504Z,99623.19
2023-04-20T05:00:44.177Z,99631.16
2023-04-20T05:01:25.971Z,99573.63
2023-04-20T05:02:07.793Z,99625.91
2023-04-20T05:02:49.725Z,99627.59
2023-04-20T05:03:31.679Z,99631.19
2023-04-20T05:04:13.606Z,99624.81
2023-04-20T05:04:56.153Z,99630.47
2023-04-20T05:05:38.180Z,99620.72
2023-04-20T05:06:19.728Z,99628.56
2023-04-20T05:07:01.514Z,99632.56
2023-04-20T05:07:43.142Z,99628.81
2023-04-20T05:08:24.883Z,99630.59
2023-04-20T05:09:06.596Z,99633.34
2023-04-20T05:09:48.193Z,99630.69
2023-04-20T05:10:29.855Z,99631.63
2023-04-20T05:11:11.494Z,99606.56
2023-04-20T05:11:53.117Z,99607.63
2023-04-20T05:12:34.770Z,99603.63
2023-04-20T05:13:16.631Z,99610.88
2023-04-20T05:13:58.490Z,99601.47
2023-04-20T05:14:40.199Z,99628.97
2023-04-20T05:15:21.830Z,99628.63
2023-04-20T05:16:03.577Z,99619.19
2023-04-20T05:16:45.269Z,99618.97
2023-04-20T05:17:26.995Z,99627.94
2023-04-20T05:18:08.785Z,99629.81
2023-04-20T05:18:50.398Z,99618.59
2023-04-20T05:19:32.006Z,99637.16
2023-04-20T05:20:13.868Z,99627.75
2023-04-20T05:20:55.614Z,99628.94
2023-04-20T05:21:39.141Z,99613.03
2023-04-20T05:22:20.733Z,99623.97
2023-04-20T05:23:02.341Z,99629.69
2023-04-20T05:23:44.175Z,99636.63
2023-04-20T05:24:25.866Z,99614.94
2023-04-20T05:25:08.639Z,99633.84
2023-04-20T05:25:50.242Z,99634.03
2023-04-20T05:26:31.794Z,99630.00
2023-04-20T05:27:13.399Z,99638.91
2023-04-20T05:27:55.007Z,99638.25
2023-04-20T05:28:36.701Z,99629.53
2023-04-20T05:29:18.627Z,99622.31
2023-04-20T05:30:16.598Z,99631.00
2023-04-20T05:31:02.026Z,99635.81
2023-04-20T05:31:43.851Z,99634.16
2023-04-20T05:32:25.552Z,99635.13
2023-04-20T05:33:07.198Z,99603.72
2023-04-20T05:33:48.797Z,99612.31
2023-04-20T05:34:31.462Z,99630.59
2023-04-20T05:35:13.402Z,99634.25
2023-04-20T05:35:58.194Z,99639.72
2023-04-20T05:36:40.720Z,99623.13
2023-04-20T05:37:22.311Z,99632.84
2023-04-20T05:38:06.179Z,99634.84
2023-04-20T05:38:47.888Z,99644.56
2023-04-20T05:39:29.470Z,99634.44
2023-04-20T05:40:11.676Z,99633.63
2023-04-20T05:40:53.349Z,99632.31
2023-04-20T05:41:34.960Z,99631.84
2023-04-20T05:42:16.651Z,99577.31
2023-04-20T05:42:58.279Z,99624.50
2023-04-20T05:43:39.855Z,99614.78
2023-04-20T05:44:21.467Z,99625.97
2023-04-20T05:45:03.246Z,99626.66
2023-04-20T05:45:46.566Z,99634.88
2023-04-20T05:46:29.280Z,99592.91
2023-04-20T05:47:11.089Z,99623.06
2023-04-20T05:47:54.066Z,99612.69
2023-04-20T05:48:35.814Z,99617.13
2023-04-20T05:49:17.648Z,99626.19
2023-04-20T05:49:59.515Z,99620.44
2023-04-20T05:50:41.115Z,99629.81
2023-04-20T05:51:23.222Z,99612.34
2023-04-20T05:52:04.989Z,99629.81
2023-04-20T05:52:46.593Z,99625.53
2023-04-20T05:53:28.263Z,99624.88
2023-04-20T05:54:10.381Z,99626.69
2023-04-20T05:54:52.714Z,99627.19
2023-04-20T05:55:34.308Z,99627.03
2023-04-20T05:56:15.907Z,99624.56
2023-04-20T05:57:00.319Z,99625.59
2023-04-20T05:57:42.746Z,99611.25
2023-04-20T05:58:24.694Z,99621.16
2023-04-20T05:59:06.716Z,99626.09
2023-04-20T05:59:48.369Z,99636.47
2023-04-20T06:00:30.238Z,99599.25
2023-04-20T06:01:12.071Z,99630.53
2023-04-20T06:01:53.731Z,99630.88
2023-04-20T06:02:37.693Z,99635.97
2023-04-20T06:03:19.561Z,99627.44
2023-04-20T06:04:01.673Z,99627.44
2023-04-20T06:04:44.139Z,99632.69
2023-04-20T06:05:26.216Z,99634.16
2023-04-20T06:06:08.009Z,99631.56
2023-04-20T06:06:49.612Z,99630.41
2023-04-20T06:07:31.276Z,99630.88
2023-04-20T06:08:12.856Z,99636.97
2023-04-20T06:08:55.052Z,99630.56
2023-04-20T06:09:36.800Z,99630.91
2023-04-20T06:10:18.354Z,99626.94
2023-04-20T06:10:59.972Z,99626.63
2023-04-20T06:11:41.624Z,99631.56
2023-04-20T06:12:24.675Z,99617.38
2023-04-20T06:13:07.828Z,99628.94
2023-04-20T06:13:49.428Z,99608.66
2023-04-20T06:14:31.128Z,99620.03
2023-04-20T06:15:12.804Z,99610.16
2023-04-20T06:15:54.789Z,99626.47
2023-04-20T06:16:36.446Z,99580.84
2023-04-20T06:17:18.097Z,99633.03
2023-04-20T06:18:01.254Z,99619.69
2023-04-20T06:18:46.129Z,99623.63
2023-04-20T06:19:29.878Z,99610.31
2023-04-20T06:20:11.830Z,99620.63
2023-04-20T06:20:53.522Z,99618.31
2023-04-20T06:21:36.410Z,99621.94
2023-04-20T06:22:18.508Z,99613.03
2023-04-20T06:23:00.154Z,99619.59
2023-04-20T06:23:42.381Z,99620.41
2023-04-20T06:24:24.214Z,99576.81
2023-04-20T06:25:06.244Z,99626.72
2023-04-20T06:25:47.929Z,99613.56
2023-04-20T06:26:29.522Z,99632.47
2023-04-20T06:27:11.493Z,99615.31
2023-04-20T06:27:53.254Z,99622.75
2023-04-20T06:28:36.143Z,99629.47
2023-04-20T06:29:17.868Z,99626.19
2023-04-20T06:29:59.554Z,99623.50
2023-04-20T06:30:41.259Z,99614.59
2023-04-20T06:31:22.867Z,99629.72
2023-04-20T06:32:05.200Z,99618.50
2023-04-20T06:32:46.835Z,99628.84
2023-04-20T06:33:28.502Z,99629.94
2023-04-20T06:34:10.110Z,99587.53
2023-04-20T06:34:52.597Z,99630.44
2023-04-20T06:35:34.294Z,99624.81
2023-04-20T06:36:16.051Z,99624.97
2023-04-20T06:36:57.695Z,99620.66
2023-04-20T06:37:40.309Z,99621.47
2023-04-20T06:38:23.796Z,99623.88
2023-04-20T06:39:05.388Z,99629.28
2023-04-20T06:39:47.067Z,99619.09
2023-04-20T06:40:29.309Z,99636.38
2023-04-20T06:41:10.889Z,99624.31
2023-04-20T06:41:52.436Z,99638.44
2023-04-20T06:42:37.375Z,99629.34
2023-04-20T06:43:19.195Z,99626.22
2023-04-20T06:44:00.831Z,99637.09
2023-04-20T06:44:42.445Z,99636.28
2023-04-20T06:45:24.051Z,99624.97
2023-04-20T06:46:05.845Z,99633.66
2023-04-20T06:46:47.499Z,99623.72
2023-04-20T06:47:31.920Z,99627.59
2023-04-20T06:48:27.994Z,99607.44
2023-04-20T06:49:12.137Z,99624.75
2023-04-20T06:49:53.823Z,99627.22
2023-04-20T06:50:35.625Z,99624.03
2023-04-20T06:51:17.346Z,99613.34
2023-04-20T06:51:58.956Z,99621.69
2023-04-20T06:52:41.041Z,99631.13
2023-04-20T06:53:22.757Z,99630.38
2023-04-20T06:54:04.418Z,99629.69
2023-04-20T06:54:46.037Z,99627.66
2023-04-20T06:55:27.641Z,99603.09
2023-04-20T06:56:09.340Z,99633.22
2023-04-20T06:56:51.488Z,99635.16
2023-04-20T06:57:33.105Z,99630.88
2023-04-20T06:58:14.758Z,99632.53
2023-04-20T06:58:56.387Z,99639.19
2023-04-20T06:59:37.959Z,99632.97
2023-04-20T07:00:19.919Z,99600.78
2023-04-20T07:01:02.140Z,99633.63
2023-04-20T07:01:43.805Z,99637.97
2023-04-20T07:02:25.892Z,99631.16
2023-04-20T07:03:07.800Z,99641.38
2023-04-20T07:03:50.327Z,99632.50
2023-04-20T07:04:32.061Z,99635.06
2023-04-20T07:05:15.099Z,99630.50
2023-04-20T07:05:56.726Z,99629.50
2023-04-20T07:06:38.893Z,99630.38
2023-04-20T07:07:20.458Z,99587.31
2023-04-20T07:08:02.222Z,99636.34
2023-04-20T07:08:43.927Z,99627.84
2023-04-20T07:09:25.596Z,99626.25
2023-04-20T07:10:12.559Z,99631.78
2023-04-20T07:10:54.296Z,99606.47
2023-04-20T07:11:36.278Z,99625.63
2023-04-20T07:12:17.870Z,99632.69
2023-04-20T07:12:59.488Z,99615.66
2023-04-20T07:13:41.125Z,99617.75
2023-04-20T07:14:22.704Z,99604.69
2023-04-20T07:15:05.505Z,99618.72
2023-04-20T07:15:47.654Z,99618.59
2023-04-20T07:16:29.331Z,99616.16
2023-04-20T07:17:10.999Z,99616.56
2023-04-20T07:17:52.670Z,99621.78
2023-04-20T07:18:35.437Z,99616.53
2023-04-20T07:19:17.622Z,99615.72
2023-04-20T07:20:05.947Z,99621.28
2023-04-20T07:20:47.613Z,99617.75
2023-04-20T07:21:39.933Z,99605.69
2023-04-20T07:22:24.053Z,99612.50
2023-04-20T07:23:08.696Z,99613.28
2023-04-20T07:23:50.669Z,99613.84
2023-04-20T07:24:32.309Z,99616.59
2023-04-20T07:25:13.936Z,99572.28
2023-04-20T07:25:55.569Z,99608.53
2023-04-20T07:26:37.181Z,99586.44
2023-04-20T07:27:18.804Z,99606.84
2023-04-20T07:28:00.703Z,99600.41
2023-04-20T07:28:42.489Z,99605.56
2023-04-20T07:29:24.321Z,99612.78
2023-04-20T07:30:10.618Z,99609.25
2023-04-20T07:30:52.285Z,99615.78
2023-04-20T07:31:35.394Z,99605.50
2023-04-20T07:32:17.356Z,99609.50
2023-04-20T07:32:59.155Z,99589.91
2023-04-20T07:33:41.112Z,99604.75
2023-04-20T07:34:22.793Z,99603.97
2023-04-20T07:35:05.325Z,99609.97
2023-04-20T07:35:47.856Z,99604.09
2023-04-20T07:36:29.745Z,99599.41
2023-04-20T07:37:12.606Z,99597.13
2023-04-20T07:37:54.315Z,99606.53
2023-04-20T07:38:36.358Z,99611.03
2023-04-20T07:39:18.163Z,99606.53
2023-04-20T07:40:00.179Z,99612.69
2023-04-20T07:40:41.771Z,99618.47
2023-04-20T07:41:23.641Z,99612.41
2023-04-20T07:42:05.342Z,99579.66
2023-04-20T07:42:47.012Z,99606.38
2023-04-20T07:43:28.770Z,99616.63
2023-04-20T07:44:12.407Z,99615.25
2023-04-20T07:44:54.318Z,99610.13
2023-04-20T07:45:39.626Z,99608.91
2023-04-20T07:46:22.440Z,99615.84
2023-04-20T07:47:04.883Z,99604.00
2023-04-20T07:47:48.764Z,99598.72
2023-04-20T07:48:30.503Z,99612.16
2023-04-20T07:49:12.081Z,99565.03
2023-04-20T07:49:54.052Z,99609.94
2023-04-20T07:50:36.021Z,99608.56
2023-04-20T07:51:17.730Z,99602.03
2023-04-20T07:52:12.846Z,99610.69
2023-04-20T07:52:57.066Z,99604.06
2023-04-20T07:53:39.052Z,99610.00
2023-04-20T07:54:20.676Z,99598.31
2023-04-20T07:55:02.562Z,99600.06
2023-04-20T07:55:45.336Z,99600.50
2023-04-20T07:56:26.974Z,99610.78
2023-04-20T07:57:09.422Z,99606.66
2023-04-20T07:57:51.067Z,99615.69
2023-04-20T07:58:32.789Z,99614.69
2023-04-20T07:59:14.469Z,99601.84
2023-04-20T07:59:56.160Z,99605.53
2023-04-20T08:00:37.856Z,99592.84
2023-04-20T08:01:24.262Z,99604.31
2023-04-20T08:02:06.711Z,99604.31
2023-04-20T08:02:48.594Z,99618.19
2023-04-20T08:03:30.575Z,99604.69
2023-04-20T08:04:12.775Z,99608.00
2023-04-20T08:04:55.033Z,99606.72
2023-04-20T08:05:37.839Z,99606.72
2023-04-20T08:06:19.547Z,99605.31
2023-04-20T08:07:01.216Z,99605.97
2023-04-20T08:07:42.860Z,99605.81
2023-04-20T08:08:24.578Z,99604.00
2023-04-20T08:09:06.383Z,99602.78
2023-04-20T08:09:48.021Z,99594.00
2023-04-20T08:10:29.624Z,99584.00
2023-04-20T08:11:12.599Z,99606.13
2023-04-20T08:11:54.214Z,99604.06
2023-04-20T08:12:36.372Z,99598.16
2023-04-20T08:13:18.097Z,99602.25
2023-04-20T08:14:00.389Z,99594.88
2023-04-20T08:14:42.229Z,99591.00
2023-04-20T08:15:23.955Z,99583.03
2023-04-20T08:16:06.048Z,99586.50
2023-04-20T08:16:47.855Z,99594.47
2023-04-20T08:17:29.592Z,99594.84
2023-04-20T08:18:11.690Z,99602.22
2023-04-20T08:18:53.310Z,99604.75
2023-04-20T08:19:34.950Z,99575.00
2023-04-20T08:20:16.673Z,99603.72
2023-04-20T08:20:58.332Z,99594.69
2023-04-20T08:21:40.777Z,99590.41
2023-04-20T08:22:24.304Z,99591.00